• Join FlightAware (Why Join?)
  • Login
  • US Flag 
12:55AM EDT


 

Airport Tracker/Info


-or-


 

Live Flight TrackerFlight Track Log ✈ N7963G ✈ 24-Jul-2013 ✈ KPWT - KOLM

Flight Track Log - Related Links

Times and Time Zones

All times are in EDT time to prevent confusion due to time zone crossing. See the N7963G flight status page for this flight to view local times or setup timezone preferences in your user account.

Time Position Orientation Groundspeed Altitude Reporting Facility
EDT Latitude Longitude Course Direction KTS MPH feet Rate Location/Type
01:32PM 47.4825 -122.7725 200° South 119 137 900  Level Seattle Center
01:32PM 47.4650 -122.7819 200° South 67 77 1,600 780 Climbing Seattle Center
01:33PM 47.4447 -122.7897 195° South 77 89 2,400 720 Climbing Seattle Center
01:34PM 47.4214 -122.7761 158° South 91 105 3,100 660 Climbing Seattle Center
01:35PM 47.3981 -122.7625 158° South 89 102 3,800 540 Climbing Seattle Center
01:36PM 47.3708 -122.7511 164° South 96 110 4,200 120 Climbing Seattle Center
01:37PM 47.3414 -122.7408 167° South 114 131 4,100  Descending Seattle Center
01:39PM 47.3122 -122.7306 167° South 102 117 4,200  Climbing Seattle Center
01:40PM 47.2850 -122.7192 164° South 98 113 4,200  Level Seattle Center
01:41PM 47.2558 -122.7089 167° South 102 117 4,200  Level Seattle Center
01:42PM 47.2297 -122.6936 158° South 100 115 4,200  Level Seattle Center
01:43PM 47.2033 -122.6853 168° South 100 115 4,200  Level Seattle Center
01:44PM 47.1742 -122.6750 167° South 106 122 4,200  Level Seattle Center
01:45PM 47.1431 -122.6658 169° South 107 123 4,200  Level Seattle Center
01:46PM 47.1136 -122.6556 167° South 105 121 4,200  Level Seattle Center
01:47PM 47.0844 -122.6453 167° South 105 121 4,200  Level Seattle Center
01:48PM 47.0572 -122.6342 164° South 108 124 4,200  Level Seattle Center
01:49PM 47.0281 -122.6239 166° South 106 122 4,200  Level Seattle Center
01:50PM 46.9981 -122.6108 163° South 108 124 4,200  Level Seattle Center
01:51PM 46.9689 -122.6006 166° South 107 123 4,200  Level Seattle Center
01:52PM 46.9397 -122.5906 167° South 106 122 4,200 -60 Level Seattle Center
01:53PM 46.9078 -122.5786 166° South 106 122 4,100  Descending Seattle Center
01:54PM 46.8806 -122.5675 164° South 105 121 4,200 60 Climbing Seattle Center
01:55PM 46.8531 -122.5725 187° South 115 132 4,300  Climbing Seattle Center
01:56PM 46.8292 -122.5919 209° Southwest 112 129 4,200 -60 Descending Seattle Center
01:57PM 46.8044 -122.6181 216° Southwest 111 128 4,200  Level Seattle Center
01:58PM 46.7817 -122.6497 224° Southwest 112 129 4,300  Climbing Seattle Center
01:59PM 46.7606 -122.6806 225° Southwest 110 127 4,200 -60 Descending Seattle Center
02:00PM 46.7489 -122.7222 248° West 110 127 4,200  Level Seattle Center
02:01PM 46.7353 -122.7650 245° Southwest 111 128 4,200  Level Seattle Center
02:02PM 46.7264 -122.8086 253° West 108 124 4,200  Level Seattle Center
02:02PM 46.7247 -122.8236 261° West 106 122 4,200  Level Seattle Center
02:03PM 46.7211 -122.8500 259° West 107 123 4,200 -120 Level Seattle Center
02:03PM 46.7186 -122.8664 257° West 109 125 4,100  Descending Seattle Center
02:04PM 46.7161 -122.8914 262° West 106 122 4,200 60 Climbing Seattle Center
02:04PM 46.7175 -122.9078 277° West 104 120 4,200  Level Seattle Center
02:05PM 46.7175 -122.9325 270° West 102 117 4,200  Level Seattle Center
02:05PM 46.7194 -122.9475 281° West 101 116 4,200  Level Seattle Center
02:06PM 46.7275 -122.9722 295° West 104 120 4,200 -240 Level Seattle Center
02:06PM 46.7381 -122.9778 340° North 96 110 4,000 -420 Descending Seattle Center
02:07PM 46.7506 -122.9761 North 95 109 3,800 -420 Descending Seattle Center
02:07PM 46.7628 -122.9669 27° Northeast 85 98 3,600 -540 Descending Seattle Center
02:08PM 46.7714 -122.9619 22° Northeast 83 96 3,300 -540 Descending Seattle Center
02:08PM 46.7858 -122.9564 15° North 88 101 3,100 -540 Descending Seattle Center
02:09PM 46.7975 -122.9511 17° North 92 106 2,800 -600 Descending Seattle Center
02:09PM 46.8108 -122.9475 11° North 91 105 2,500 -600 Descending Seattle Center
02:10PM 46.8400 -122.9453 North 96 110 1,900 -420 Descending Seattle Center
02:11PM 46.8672 -122.9367 12° North 99 114 1,700 -120 Descending Seattle Center
02:12PM 46.8906 -122.9275 15° North 90 104 1,700 -240 Level Seattle Center
02:14PM 46.9169 -122.9183 13° North 97 112 1,300 -360 Descending Seattle Center
02:15PM 46.9431 -122.9111 11° North 96 110 1,000 -180 Descending Seattle Center
02:15PM 46.9672 -122.9031 13° North 96 110 1,000 300 Level Seattle Center
02:16PM 46.9756 -122.8919 42° Northeast 90 104 1,500 900 Climbing Seattle Center
02:17PM 46.9764 -122.8758 86° East 78 90 2,000 660 Climbing Seattle Center
02:18PM 46.9797 -122.8392 82° East 84 97 2,600 480 Climbing Seattle Center
02:19PM 47.0036 -122.8372 North 88 101 3,000 240 Climbing Seattle Center
02:20PM 47.0286 -122.8344 North 91 105 3,100 120 Climbing Seattle Center
02:21PM 47.0567 -122.8319 North 94 108 3,300 360 Climbing Seattle Center
02:22PM 47.0794 -122.8358 353° North 84 97 3,900 300 Climbing Seattle Center
02:23PM 47.1047 -122.8389 355° North 90 104 4,000  Climbing Seattle Center
02:24PM 47.1306 -122.8433 353° North 93 107 4,000  Level Seattle Center
02:25PM 47.1592 -122.8461 356° North 97 112 4,000  Level Seattle Center
02:26PM 47.1844 -122.8508 353° North 93 107 4,000  Level Seattle Center
02:27PM 47.2100 -122.8503 North 91 105 4,100  Climbing Seattle Center
02:28PM 47.2383 -122.8561 352° North 95 109 4,000 -60 Descending Seattle Center
02:29PM 47.2653 -122.8589 356° North 97 112 4,000  Level Seattle Center
02:30PM 47.2917 -122.8619 356° North 96 110 4,100 -120 Climbing Seattle Center
02:31PM 47.3189 -122.8547 10° North 93 107 3,800 -480 Descending Seattle Center
02:32PM 47.3461 -122.8489 North 99 114 3,200 -540 Descending Seattle Center
02:33PM 47.3728 -122.8467 North 97 112 2,700 -540 Descending Seattle Center
02:34PM 47.3994 -122.8419 North 97 112 2,200 -480 Descending Seattle Center
02:35PM 47.4256 -122.8261 22° Northeast 96 110 1,800 -480 Descending Seattle Center
02:36PM 47.4478 -122.8039 34° Northeast 96 110 1,300 -420 Descending Seattle Center
02:37PM 47.4717 -122.7808 33° Northeast 101 116 1,000 -180 Descending Seattle Center
02:38PM 47.4861 -122.7503 55° Northeast 101 116 1,000  Level Seattle Center